sensor_id;sensor_type;location;lat;lon;timestamp;P1;durP1;ratioP1;P2;durP2;ratioP2
4698;SDS011;33708;49.466;11.176;2024-03-06T00:02:07;24.17;;;16.30;;
4698;SDS011;33708;49.466;11.176;2024-03-06T00:04:34;28.67;;;16.90;;
4698;SDS011;33708;49.466;11.176;2024-03-06T00:06:59;21.10;;;15.67;;
4698;SDS011;33708;49.466;11.176;2024-03-06T00:09:25;23.87;;;15.50;;
4698;SDS011;33708;49.466;11.176;2024-03-06T00:11:54;23.00;;;15.50;;
4698;SDS011;33708;49.466;11.176;2024-03-06T00:14:20;23.70;;;17.07;;
4698;SDS011;33708;49.466;11.176;2024-03-06T00:16:50;25.53;;;16.67;;
4698;SDS011;33708;49.466;11.176;2024-03-06T00:23:07;23.30;;;14.67;;
4698;SDS011;33708;49.466;11.176;2024-03-06T00:25:32;22.27;;;14.53;;
4698;SDS011;33708;49.466;11.176;2024-03-06T00:27:59;25.00;;;15.10;;
4698;SDS011;33708;49.466;11.176;2024-03-06T00:30:25;23.20;;;15.50;;
4698;SDS011;33708;49.466;11.176;2024-03-06T00:32:51;21.13;;;14.90;;
4698;SDS011;33708;49.466;11.176;2024-03-06T00:35:17;21.37;;;14.63;;
4698;SDS011;33708;49.466;11.176;2024-03-06T00:37:44;26.13;;;16.10;;
4698;SDS011;33708;49.466;11.176;2024-03-06T00:40:10;27.20;;;16.60;;
4698;SDS011;33708;49.466;11.176;2024-03-06T00:42:37;26.40;;;17.83;;
4698;SDS011;33708;49.466;11.176;2024-03-06T00:45:06;24.97;;;15.80;;
4698;SDS011;33708;49.466;11.176;2024-03-06T00:47:32;28.70;;;18.10;;
4698;SDS011;33708;49.466;11.176;2024-03-06T00:49:59;25.60;;;16.70;;
4698;SDS011;33708;49.466;11.176;2024-03-06T00:52:25;24.87;;;16.57;;
4698;SDS011;33708;49.466;11.176;2024-03-06T00:54:50;23.90;;;16.80;;
4698;SDS011;33708;49.466;11.176;2024-03-06T00:57:16;25.50;;;15.63;;
4698;SDS011;33708;49.466;11.176;2024-03-06T00:59:42;25.97;;;16.70;;
4698;SDS011;33708;49.466;11.176;2024-03-06T01:02:07;26.47;;;17.07;;
4698;SDS011;33708;49.466;11.176;2024-03-06T01:04:33;22.30;;;15.77;;
4698;SDS011;33708;49.466;11.176;2024-03-06T01:06:58;23.13;;;16.03;;
4698;SDS011;33708;49.466;11.176;2024-03-06T01:09:24;25.70;;;16.80;;
4698;SDS011;33708;49.466;11.176;2024-03-06T01:11:50;24.70;;;16.60;;
4698;SDS011;33708;49.466;11.176;2024-03-06T01:14:16;26.53;;;15.80;;
4698;SDS011;33708;49.466;11.176;2024-03-06T01:16:42;26.10;;;15.37;;
4698;SDS011;33708;49.466;11.176;2024-03-06T01:19:07;28.93;;;17.60;;
4698;SDS011;33708;49.466;11.176;2024-03-06T01:21:33;23.50;;;15.10;;
4698;SDS011;33708;49.466;11.176;2024-03-06T01:23:59;26.10;;;17.30;;
4698;SDS011;33708;49.466;11.176;2024-03-06T01:26:25;25.30;;;17.67;;
4698;SDS011;33708;49.466;11.176;2024-03-06T01:28:51;25.63;;;17.30;;
4698;SDS011;33708;49.466;11.176;2024-03-06T01:31:17;30.07;;;19.17;;
4698;SDS011;33708;49.466;11.176;2024-03-06T01:33:42;31.10;;;18.20;;
4698;SDS011;33708;49.466;11.176;2024-03-06T01:36:08;26.47;;;17.50;;
4698;SDS011;33708;49.466;11.176;2024-03-06T01:38:34;26.50;;;18.03;;
4698;SDS011;33708;49.466;11.176;2024-03-06T01:40:59;23.53;;;15.80;;
4698;SDS011;33708;49.466;11.176;2024-03-06T01:43:25;24.00;;;16.60;;
4698;SDS011;33708;49.466;11.176;2024-03-06T01:45:51;23.33;;;16.47;;
4698;SDS011;33708;49.466;11.176;2024-03-06T01:48:21;26.33;;;17.50;;
4698;SDS011;33708;49.466;11.176;2024-03-06T01:50:51;26.17;;;17.77;;
4698;SDS011;33708;49.466;11.176;2024-03-06T01:53:20;28.13;;;18.37;;
4698;SDS011;33708;49.466;11.176;2024-03-06T01:55:46;28.83;;;16.20;;
4698;SDS011;33708;49.466;11.176;2024-03-06T01:58:13;22.83;;;14.43;;
4698;SDS011;33708;49.466;11.176;2024-03-06T02:00:39;21.77;;;15.00;;
4698;SDS011;33708;49.466;11.176;2024-03-06T02:03:05;25.93;;;15.80;;
4698;SDS011;33708;49.466;11.176;2024-03-06T02:05:31;21.10;;;14.90;;
4698;SDS011;33708;49.466;11.176;2024-03-06T02:07:58;21.80;;;14.57;;
4698;SDS011;33708;49.466;11.176;2024-03-06T02:10:24;20.90;;;14.63;;
4698;SDS011;33708;49.466;11.176;2024-03-06T02:12:51;31.73;;;16.97;;
4698;SDS011;33708;49.466;11.176;2024-03-06T02:15:18;27.33;;;16.80;;
4698;SDS011;33708;49.466;11.176;2024-03-06T02:17:44;28.40;;;18.60;;
4698;SDS011;33708;49.466;11.176;2024-03-06T02:20:11;26.00;;;16.37;;
4698;SDS011;33708;49.466;11.176;2024-03-06T02:22:42;22.47;;;15.03;;
4698;SDS011;33708;49.466;11.176;2024-03-06T02:25:09;21.53;;;13.40;;
4698;SDS011;33708;49.466;11.176;2024-03-06T02:27:40;22.27;;;15.60;;
4698;SDS011;33708;49.466;11.176;2024-03-06T02:30:07;33.63;;;17.77;;
4698;SDS011;33708;49.466;11.176;2024-03-06T02:32:33;28.20;;;18.57;;
4698;SDS011;33708;49.466;11.176;2024-03-06T02:35:00;30.50;;;19.93;;
4698;SDS011;33708;49.466;11.176;2024-03-06T02:37:33;32.87;;;20.80;;
4698;SDS011;33708;49.466;11.176;2024-03-06T02:39:59;38.13;;;20.40;;
4698;SDS011;33708;49.466;11.176;2024-03-06T02:42:25;31.70;;;19.70;;
4698;SDS011;33708;49.466;11.176;2024-03-06T02:44:52;28.50;;;18.67;;
4698;SDS011;33708;49.466;11.176;2024-03-06T02:47:18;32.07;;;18.10;;
4698;SDS011;33708;49.466;11.176;2024-03-06T02:49:44;26.47;;;18.73;;
4698;SDS011;33708;49.466;11.176;2024-03-06T02:52:10;30.60;;;18.30;;
4698;SDS011;33708;49.466;11.176;2024-03-06T02:54:35;32.73;;;18.27;;
4698;SDS011;33708;49.466;11.176;2024-03-06T02:57:01;29.80;;;20.20;;
4698;SDS011;33708;49.466;11.176;2024-03-06T02:59:26;29.40;;;18.80;;
4698;SDS011;33708;49.466;11.176;2024-03-06T03:01:52;34.63;;;21.50;;
4698;SDS011;33708;49.466;11.176;2024-03-06T03:04:18;34.80;;;21.90;;
4698;SDS011;33708;49.466;11.176;2024-03-06T03:06:43;34.10;;;20.77;;
4698;SDS011;33708;49.466;11.176;2024-03-06T03:09:09;34.67;;;21.50;;
4698;SDS011;33708;49.466;11.176;2024-03-06T03:11:37;35.20;;;22.53;;
4698;SDS011;33708;49.466;11.176;2024-03-06T03:14:03;37.13;;;22.40;;
4698;SDS011;33708;49.466;11.176;2024-03-06T03:16:28;31.63;;;20.93;;
4698;SDS011;33708;49.466;11.176;2024-03-06T03:18:55;37.40;;;22.77;;
4698;SDS011;33708;49.466;11.176;2024-03-06T03:21:20;35.57;;;20.27;;
4698;SDS011;33708;49.466;11.176;2024-03-06T03:23:47;32.87;;;21.23;;
4698;SDS011;33708;49.466;11.176;2024-03-06T03:26:13;36.93;;;21.17;;
4698;SDS011;33708;49.466;11.176;2024-03-06T03:28:39;34.87;;;23.40;;
4698;SDS011;33708;49.466;11.176;2024-03-06T03:31:08;33.13;;;20.30;;
4698;SDS011;33708;49.466;11.176;2024-03-06T03:33:34;33.90;;;19.77;;
4698;SDS011;33708;49.466;11.176;2024-03-06T03:36:03;28.40;;;18.03;;
4698;SDS011;33708;49.466;11.176;2024-03-06T03:38:31;28.80;;;17.37;;
4698;SDS011;33708;49.466;11.176;2024-03-06T03:40:57;24.33;;;16.43;;
4698;SDS011;33708;49.466;11.176;2024-03-06T03:43:23;26.70;;;17.80;;
4698;SDS011;33708;49.466;11.176;2024-03-06T03:45:49;25.20;;;17.00;;
4698;SDS011;33708;49.466;11.176;2024-03-06T03:48:14;26.60;;;16.70;;
4698;SDS011;33708;49.466;11.176;2024-03-06T03:50:40;27.70;;;18.20;;
4698;SDS011;33708;49.466;11.176;2024-03-06T03:53:06;29.27;;;17.77;;
4698;SDS011;33708;49.466;11.176;2024-03-06T03:55:31;27.50;;;18.70;;
4698;SDS011;33708;49.466;11.176;2024-03-06T03:57:57;30.63;;;17.37;;
4698;SDS011;33708;49.466;11.176;2024-03-06T04:00:22;30.20;;;19.57;;
4698;SDS011;33708;49.466;11.176;2024-03-06T04:02:48;26.80;;;18.50;;
4698;SDS011;33708;49.466;11.176;2024-03-06T04:05:14;29.93;;;19.07;;
4698;SDS011;33708;49.466;11.176;2024-03-06T04:07:39;29.97;;;18.33;;
4698;SDS011;33708;49.466;11.176;2024-03-06T04:10:05;27.93;;;17.63;;
4698;SDS011;33708;49.466;11.176;2024-03-06T04:12:32;32.30;;;19.50;;
4698;SDS011;33708;49.466;11.176;2024-03-06T04:14:57;28.73;;;18.40;;
4698;SDS011;33708;49.466;11.176;2024-03-06T04:17:23;29.50;;;18.77;;
4698;SDS011;33708;49.466;11.176;2024-03-06T04:19:50;32.63;;;19.33;;
4698;SDS011;33708;49.466;11.176;2024-03-06T04:22:18;30.97;;;19.30;;
4698;SDS011;33708;49.466;11.176;2024-03-06T04:24:44;27.77;;;18.57;;
4698;SDS011;33708;49.466;11.176;2024-03-06T04:27:10;29.50;;;19.43;;
4698;SDS011;33708;49.466;11.176;2024-03-06T04:29:35;33.67;;;20.80;;
4698;SDS011;33708;49.466;11.176;2024-03-06T04:32:01;37.47;;;21.20;;
4698;SDS011;33708;49.466;11.176;2024-03-06T04:34:27;32.77;;;19.67;;
4698;SDS011;33708;49.466;11.176;2024-03-06T04:36:52;32.90;;;19.90;;
4698;SDS011;33708;49.466;11.176;2024-03-06T04:39:18;32.40;;;19.70;;
4698;SDS011;33708;49.466;11.176;2024-03-06T04:41:43;31.63;;;18.00;;
4698;SDS011;33708;49.466;11.176;2024-03-06T04:44:09;33.63;;;18.37;;
4698;SDS011;33708;49.466;11.176;2024-03-06T04:46:34;31.33;;;19.63;;
4698;SDS011;33708;49.466;11.176;2024-03-06T04:49:00;32.57;;;19.63;;
4698;SDS011;33708;49.466;11.176;2024-03-06T04:51:26;42.20;;;23.53;;
4698;SDS011;33708;49.466;11.176;2024-03-06T04:53:51;42.47;;;25.47;;
4698;SDS011;33708;49.466;11.176;2024-03-06T04:56:17;40.33;;;25.07;;
4698;SDS011;33708;49.466;11.176;2024-03-06T04:58:44;37.90;;;24.50;;
4698;SDS011;33708;49.466;11.176;2024-03-06T05:01:11;42.00;;;23.70;;
4698;SDS011;33708;49.466;11.176;2024-03-06T05:03:37;40.83;;;25.93;;
4698;SDS011;33708;49.466;11.176;2024-03-06T05:06:04;46.20;;;27.30;;
4698;SDS011;33708;49.466;11.176;2024-03-06T05:08:30;45.40;;;27.77;;
4698;SDS011;33708;49.466;11.176;2024-03-06T05:10:56;41.77;;;26.40;;
4698;SDS011;33708;49.466;11.176;2024-03-06T05:13:21;47.53;;;28.60;;
4698;SDS011;33708;49.466;11.176;2024-03-06T05:15:47;50.00;;;26.90;;
4698;SDS011;33708;49.466;11.176;2024-03-06T05:18:13;39.77;;;25.40;;
4698;SDS011;33708;49.466;11.176;2024-03-06T05:20:38;46.80;;;27.27;;
4698;SDS011;33708;49.466;11.176;2024-03-06T05:23:04;44.70;;;26.60;;
4698;SDS011;33708;49.466;11.176;2024-03-06T05:25:30;43.30;;;26.00;;
4698;SDS011;33708;49.466;11.176;2024-03-06T05:27:55;37.40;;;24.00;;
4698;SDS011;33708;49.466;11.176;2024-03-06T05:30:21;47.20;;;27.57;;
4698;SDS011;33708;49.466;11.176;2024-03-06T05:32:46;41.93;;;25.67;;
4698;SDS011;33708;49.466;11.176;2024-03-06T05:35:12;43.20;;;24.63;;
4698;SDS011;33708;49.466;11.176;2024-03-06T05:37:38;47.77;;;26.47;;
4698;SDS011;33708;49.466;11.176;2024-03-06T05:40:04;37.83;;;23.03;;
4698;SDS011;33708;49.466;11.176;2024-03-06T05:42:30;37.07;;;24.27;;
4698;SDS011;33708;49.466;11.176;2024-03-06T05:44:56;39.70;;;23.73;;
4698;SDS011;33708;49.466;11.176;2024-03-06T05:47:25;39.43;;;23.67;;
4698;SDS011;33708;49.466;11.176;2024-03-06T05:49:51;41.07;;;24.70;;
4698;SDS011;33708;49.466;11.176;2024-03-06T05:52:17;40.37;;;24.73;;
4698;SDS011;33708;49.466;11.176;2024-03-06T05:54:43;44.30;;;25.57;;
4698;SDS011;33708;49.466;11.176;2024-03-06T05:57:08;38.50;;;23.17;;
4698;SDS011;33708;49.466;11.176;2024-03-06T05:59:34;45.10;;;24.30;;
4698;SDS011;33708;49.466;11.176;2024-03-06T06:02:00;40.33;;;25.53;;
4698;SDS011;33708;49.466;11.176;2024-03-06T06:04:25;43.60;;;26.20;;
4698;SDS011;33708;49.466;11.176;2024-03-06T06:06:51;43.20;;;26.17;;
4698;SDS011;33708;49.466;11.176;2024-03-06T06:09:17;48.87;;;27.30;;
4698;SDS011;33708;49.466;11.176;2024-03-06T06:11:43;38.63;;;23.50;;
4698;SDS011;33708;49.466;11.176;2024-03-06T06:14:09;35.23;;;21.87;;
4698;SDS011;33708;49.466;11.176;2024-03-06T06:16:38;46.20;;;27.20;;
4698;SDS011;33708;49.466;11.176;2024-03-06T06:19:05;41.00;;;23.30;;
4698;SDS011;33708;49.466;11.176;2024-03-06T06:21:34;43.70;;;23.30;;
4698;SDS011;33708;49.466;11.176;2024-03-06T06:24:01;38.93;;;23.23;;
4698;SDS011;33708;49.466;11.176;2024-03-06T06:26:28;36.03;;;22.37;;
4698;SDS011;33708;49.466;11.176;2024-03-06T06:28:55;35.37;;;21.70;;
4698;SDS011;33708;49.466;11.176;2024-03-06T06:31:22;39.00;;;23.43;;
4698;SDS011;33708;49.466;11.176;2024-03-06T06:33:48;38.63;;;22.20;;
4698;SDS011;33708;49.466;11.176;2024-03-06T06:36:14;41.57;;;23.13;;
4698;SDS011;33708;49.466;11.176;2024-03-06T06:38:40;32.57;;;22.50;;
4698;SDS011;33708;49.466;11.176;2024-03-06T06:41:05;38.93;;;23.60;;
4698;SDS011;33708;49.466;11.176;2024-03-06T06:43:31;38.10;;;23.80;;
4698;SDS011;33708;49.466;11.176;2024-03-06T06:45:58;36.97;;;23.00;;
4698;SDS011;33708;49.466;11.176;2024-03-06T06:48:24;37.90;;;24.00;;
4698;SDS011;33708;49.466;11.176;2024-03-06T06:50:49;41.23;;;24.50;;
4698;SDS011;33708;49.466;11.176;2024-03-06T06:53:15;43.90;;;27.80;;
4698;SDS011;33708;49.466;11.176;2024-03-06T06:55:40;42.70;;;26.10;;
4698;SDS011;33708;49.466;11.176;2024-03-06T06:58:06;42.07;;;24.67;;
4698;SDS011;33708;49.466;11.176;2024-03-06T07:00:31;40.17;;;25.60;;
4698;SDS011;33708;49.466;11.176;2024-03-06T07:02:58;39.40;;;25.73;;
4698;SDS011;33708;49.466;11.176;2024-03-06T07:05:24;44.53;;;26.33;;
4698;SDS011;33708;49.466;11.176;2024-03-06T07:07:49;50.67;;;27.07;;
4698;SDS011;33708;49.466;11.176;2024-03-06T07:10:15;42.17;;;26.53;;
4698;SDS011;33708;49.466;11.176;2024-03-06T07:12:40;42.17;;;26.90;;
4698;SDS011;33708;49.466;11.176;2024-03-06T07:15:06;38.63;;;25.30;;
4698;SDS011;33708;49.466;11.176;2024-03-06T07:17:32;46.23;;;27.33;;
4698;SDS011;33708;49.466;11.176;2024-03-06T07:19:58;44.97;;;26.60;;
4698;SDS011;33708;49.466;11.176;2024-03-06T07:22:25;43.63;;;26.00;;
4698;SDS011;33708;49.466;11.176;2024-03-06T07:24:50;39.77;;;24.70;;
4698;SDS011;33708;49.466;11.176;2024-03-06T07:27:16;38.23;;;24.40;;
4698;SDS011;33708;49.466;11.176;2024-03-06T07:29:43;39.70;;;24.23;;
4698;SDS011;33708;49.466;11.176;2024-03-06T07:32:09;40.57;;;24.17;;
4698;SDS011;33708;49.466;11.176;2024-03-06T07:34:35;38.33;;;21.57;;
4698;SDS011;33708;49.466;11.176;2024-03-06T07:37:01;44.20;;;24.37;;
4698;SDS011;33708;49.466;11.176;2024-03-06T07:39:27;41.10;;;24.43;;
4698;SDS011;33708;49.466;11.176;2024-03-06T07:41:52;36.00;;;20.73;;
4698;SDS011;33708;49.466;11.176;2024-03-06T07:44:19;37.00;;;23.00;;
4698;SDS011;33708;49.466;11.176;2024-03-06T07:46:45;37.63;;;21.97;;
4698;SDS011;33708;49.466;11.176;2024-03-06T07:49:10;34.87;;;21.70;;
4698;SDS011;33708;49.466;11.176;2024-03-06T07:51:36;37.83;;;22.33;;
4698;SDS011;33708;49.466;11.176;2024-03-06T07:54:02;35.87;;;21.40;;
4698;SDS011;33708;49.466;11.176;2024-03-06T07:56:30;37.10;;;21.00;;
4698;SDS011;33708;49.466;11.176;2024-03-06T07:58:56;35.40;;;21.63;;
4698;SDS011;33708;49.466;11.176;2024-03-06T08:01:22;34.40;;;21.93;;
4698;SDS011;33708;49.466;11.176;2024-03-06T08:03:48;34.10;;;20.33;;
4698;SDS011;33708;49.466;11.176;2024-03-06T08:06:14;37.10;;;22.17;;
4698;SDS011;33708;49.466;11.176;2024-03-06T08:08:40;34.70;;;21.13;;
4698;SDS011;33708;49.466;11.176;2024-03-06T08:11:10;39.57;;;23.00;;
4698;SDS011;33708;49.466;11.176;2024-03-06T08:13:37;33.97;;;21.73;;
4698;SDS011;33708;49.466;11.176;2024-03-06T08:16:03;37.53;;;21.43;;
4698;SDS011;33708;49.466;11.176;2024-03-06T08:18:29;36.50;;;21.07;;
4698;SDS011;33708;49.466;11.176;2024-03-06T08:20:55;35.83;;;21.77;;
4698;SDS011;33708;49.466;11.176;2024-03-06T08:23:21;39.17;;;22.10;;
4698;SDS011;33708;49.466;11.176;2024-03-06T08:25:48;40.60;;;22.73;;
4698;SDS011;33708;49.466;11.176;2024-03-06T08:28:14;35.60;;;22.53;;
4698;SDS011;33708;49.466;11.176;2024-03-06T08:30:40;33.30;;;21.27;;
4698;SDS011;33708;49.466;11.176;2024-03-06T08:33:06;39.70;;;22.50;;
4698;SDS011;33708;49.466;11.176;2024-03-06T08:35:31;38.47;;;21.83;;
4698;SDS011;33708;49.466;11.176;2024-03-06T08:37:57;37.40;;;23.07;;
4698;SDS011;33708;49.466;11.176;2024-03-06T08:40:23;38.03;;;22.10;;
4698;SDS011;33708;49.466;11.176;2024-03-06T08:42:50;39.67;;;22.80;;
4698;SDS011;33708;49.466;11.176;2024-03-06T08:45:16;46.50;;;24.50;;
4698;SDS011;33708;49.466;11.176;2024-03-06T08:47:43;39.50;;;24.00;;
4698;SDS011;33708;49.466;11.176;2024-03-06T08:50:09;36.33;;;23.27;;
4698;SDS011;33708;49.466;11.176;2024-03-06T08:52:35;43.67;;;22.20;;
4698;SDS011;33708;49.466;11.176;2024-03-06T08:55:02;40.53;;;23.83;;
4698;SDS011;33708;49.466;11.176;2024-03-06T08:57:31;40.60;;;22.73;;
4698;SDS011;33708;49.466;11.176;2024-03-06T08:59:57;42.13;;;25.50;;
4698;SDS011;33708;49.466;11.176;2024-03-06T09:02:23;48.27;;;25.30;;
4698;SDS011;33708;49.466;11.176;2024-03-06T09:04:49;39.37;;;22.70;;
4698;SDS011;33708;49.466;11.176;2024-03-06T09:07:16;50.03;;;25.40;;
4698;SDS011;33708;49.466;11.176;2024-03-06T09:09:42;38.53;;;22.60;;
4698;SDS011;33708;49.466;11.176;2024-03-06T09:12:08;40.43;;;23.30;;
4698;SDS011;33708;49.466;11.176;2024-03-06T09:14:39;36.77;;;21.43;;
4698;SDS011;33708;49.466;11.176;2024-03-06T09:17:06;42.67;;;24.80;;
4698;SDS011;33708;49.466;11.176;2024-03-06T09:19:35;40.97;;;23.77;;
4698;SDS011;33708;49.466;11.176;2024-03-06T09:22:01;36.13;;;22.27;;
4698;SDS011;33708;49.466;11.176;2024-03-06T09:24:27;42.73;;;23.90;;
4698;SDS011;33708;49.466;11.176;2024-03-06T09:26:54;38.47;;;22.33;;
4698;SDS011;33708;49.466;11.176;2024-03-06T09:29:20;41.03;;;23.23;;
4698;SDS011;33708;49.466;11.176;2024-03-06T09:31:46;41.43;;;23.10;;
4698;SDS011;33708;49.466;11.176;2024-03-06T09:34:13;37.47;;;23.07;;
4698;SDS011;33708;49.466;11.176;2024-03-06T09:36:45;35.07;;;20.70;;
4698;SDS011;33708;49.466;11.176;2024-03-06T09:39:12;38.33;;;23.17;;
4698;SDS011;33708;49.466;11.176;2024-03-06T09:41:41;41.57;;;24.30;;
4698;SDS011;33708;49.466;11.176;2024-03-06T09:44:11;36.83;;;21.60;;
4698;SDS011;33708;49.466;11.176;2024-03-06T09:46:37;38.63;;;23.03;;
4698;SDS011;33708;49.466;11.176;2024-03-06T09:49:03;38.97;;;23.60;;
4698;SDS011;33708;49.466;11.176;2024-03-06T09:51:29;39.20;;;23.13;;
4698;SDS011;33708;49.466;11.176;2024-03-06T09:53:55;43.13;;;23.93;;
4698;SDS011;33708;49.466;11.176;2024-03-06T09:56:21;37.80;;;23.57;;
4698;SDS011;33708;49.466;11.176;2024-03-06T09:58:47;40.93;;;25.43;;
4698;SDS011;33708;49.466;11.176;2024-03-06T10:01:12;44.70;;;23.50;;
4698;SDS011;33708;49.466;11.176;2024-03-06T10:03:39;43.80;;;24.90;;
4698;SDS011;33708;49.466;11.176;2024-03-06T10:06:06;48.33;;;25.83;;
4698;SDS011;33708;49.466;11.176;2024-03-06T10:08:32;37.57;;;22.50;;
4698;SDS011;33708;49.466;11.176;2024-03-06T10:10:58;36.60;;;22.90;;
4698;SDS011;33708;49.466;11.176;2024-03-06T10:13:24;41.03;;;24.23;;
4698;SDS011;33708;49.466;11.176;2024-03-06T10:15:57;38.60;;;24.70;;
4698;SDS011;33708;49.466;11.176;2024-03-06T10:18:26;38.17;;;23.67;;
4698;SDS011;33708;49.466;11.176;2024-03-06T10:20:53;36.70;;;22.40;;
4698;SDS011;33708;49.466;11.176;2024-03-06T10:23:19;39.80;;;23.60;;
4698;SDS011;33708;49.466;11.176;2024-03-06T10:25:44;35.97;;;21.70;;
4698;SDS011;33708;49.466;11.176;2024-03-06T10:28:12;39.70;;;23.70;;
4698;SDS011;33708;49.466;11.176;2024-03-06T10:30:38;36.87;;;23.00;;
4698;SDS011;33708;49.466;11.176;2024-03-06T10:33:08;37.10;;;22.40;;
4698;SDS011;33708;49.466;11.176;2024-03-06T10:35:34;38.03;;;22.30;;
4698;SDS011;33708;49.466;11.176;2024-03-06T10:38:04;42.37;;;24.13;;
4698;SDS011;33708;49.466;11.176;2024-03-06T10:40:31;39.73;;;20.00;;
4698;SDS011;33708;49.466;11.176;2024-03-06T10:42:58;37.03;;;20.57;;
4698;SDS011;33708;49.466;11.176;2024-03-06T10:45:29;35.33;;;21.07;;
4698;SDS011;33708;49.466;11.176;2024-03-06T10:48:13;35.13;;;21.47;;
4698;SDS011;33708;49.466;11.176;2024-03-06T10:50:39;33.90;;;18.93;;
4698;SDS011;33708;49.466;11.176;2024-03-06T10:53:08;31.60;;;19.40;;
4698;SDS011;33708;49.466;11.176;2024-03-06T10:55:38;31.63;;;18.47;;
4698;SDS011;33708;49.466;11.176;2024-03-06T10:58:07;31.50;;;19.07;;
4698;SDS011;33708;49.466;11.176;2024-03-06T11:00:40;29.30;;;16.47;;
4698;SDS011;33708;49.466;11.176;2024-03-06T11:03:06;25.00;;;16.43;;
4698;SDS011;33708;49.466;11.176;2024-03-06T11:05:37;31.47;;;20.00;;
4698;SDS011;33708;49.466;11.176;2024-03-06T11:08:06;29.50;;;18.80;;
4698;SDS011;33708;49.466;11.176;2024-03-06T11:10:33;31.70;;;19.20;;
4698;SDS011;33708;49.466;11.176;2024-03-06T11:13:00;36.27;;;18.23;;
4698;SDS011;33708;49.466;11.176;2024-03-06T11:15:28;36.47;;;20.53;;
4698;SDS011;33708;49.466;11.176;2024-03-06T11:17:53;34.33;;;19.63;;
4698;SDS011;33708;49.466;11.176;2024-03-06T11:20:20;33.90;;;19.47;;
4698;SDS011;33708;49.466;11.176;2024-03-06T11:33:22;32.97;;;19.67;;
4698;SDS011;33708;49.466;11.176;2024-03-06T11:41:33;35.57;;;20.50;;
4698;SDS011;33708;49.466;11.176;2024-03-06T11:44:17;30.30;;;19.30;;
4698;SDS011;33708;49.466;11.176;2024-03-06T11:49:20;30.20;;;18.57;;
4698;SDS011;33708;49.466;11.176;2024-03-06T11:51:49;27.93;;;17.80;;
4698;SDS011;33708;49.466;11.176;2024-03-06T11:54:15;30.67;;;19.80;;
4698;SDS011;33708;49.466;11.176;2024-03-06T11:56:44;35.20;;;19.97;;
4698;SDS011;33708;49.466;11.176;2024-03-06T11:59:12;31.23;;;19.53;;
4698;SDS011;33708;49.466;11.176;2024-03-06T12:01:37;32.00;;;19.10;;
4698;SDS011;33708;49.466;11.176;2024-03-06T12:04:03;32.20;;;19.00;;
4698;SDS011;33708;49.466;11.176;2024-03-06T12:06:30;29.73;;;18.13;;
4698;SDS011;33708;49.466;11.176;2024-03-06T12:08:57;28.40;;;17.07;;
4698;SDS011;33708;49.466;11.176;2024-03-06T12:11:23;29.60;;;17.20;;
4698;SDS011;33708;49.466;11.176;2024-03-06T12:13:53;26.73;;;16.03;;
4698;SDS011;33708;49.466;11.176;2024-03-06T12:16:20;23.90;;;16.27;;
4698;SDS011;33708;49.466;11.176;2024-03-06T12:18:46;23.53;;;14.97;;
4698;SDS011;33708;49.466;11.176;2024-03-06T12:21:19;26.77;;;16.17;;
4698;SDS011;33708;49.466;11.176;2024-03-06T12:23:44;23.57;;;14.67;;
4698;SDS011;33708;49.466;11.176;2024-03-06T12:26:10;27.20;;;16.27;;
4698;SDS011;33708;49.466;11.176;2024-03-06T12:28:39;31.17;;;17.60;;
4698;SDS011;33708;49.466;11.176;2024-03-06T12:31:05;27.10;;;16.07;;
4698;SDS011;33708;49.466;11.176;2024-03-06T12:33:32;22.40;;;15.30;;
4698;SDS011;33708;49.466;11.176;2024-03-06T12:36:04;24.10;;;15.47;;
4698;SDS011;33708;49.466;11.176;2024-03-06T12:38:32;26.20;;;15.67;;
4698;SDS011;33708;49.466;11.176;2024-03-06T12:40:58;24.77;;;14.90;;
4698;SDS011;33708;49.466;11.176;2024-03-06T12:43:25;25.97;;;16.53;;
4698;SDS011;33708;49.466;11.176;2024-03-06T12:45:51;29.63;;;16.20;;
4698;SDS011;33708;49.466;11.176;2024-03-06T12:48:19;24.50;;;15.60;;
4698;SDS011;33708;49.466;11.176;2024-03-06T12:50:46;25.50;;;15.50;;
4698;SDS011;33708;49.466;11.176;2024-03-06T12:53:16;28.63;;;17.77;;
4698;SDS011;33708;49.466;11.176;2024-03-06T12:55:45;24.80;;;15.47;;
4698;SDS011;33708;49.466;11.176;2024-03-06T12:58:11;24.90;;;15.97;;
4698;SDS011;33708;49.466;11.176;2024-03-06T13:00:37;26.10;;;16.10;;
4698;SDS011;33708;49.466;11.176;2024-03-06T13:03:03;26.07;;;16.10;;
4698;SDS011;33708;49.466;11.176;2024-03-06T13:05:29;24.90;;;15.30;;
4698;SDS011;33708;49.466;11.176;2024-03-06T13:07:56;26.10;;;16.27;;
4698;SDS011;33708;49.466;11.176;2024-03-06T13:10:22;29.67;;;17.40;;
4698;SDS011;33708;49.466;11.176;2024-03-06T13:12:47;29.20;;;16.73;;
4698;SDS011;33708;49.466;11.176;2024-03-06T13:15:13;24.90;;;15.43;;
4698;SDS011;33708;49.466;11.176;2024-03-06T13:17:38;25.27;;;15.60;;
4698;SDS011;33708;49.466;11.176;2024-03-06T13:20:07;24.87;;;14.23;;
4698;SDS011;33708;49.466;11.176;2024-03-06T13:22:39;25.60;;;16.03;;
4698;SDS011;33708;49.466;11.176;2024-03-06T13:25:05;20.97;;;14.10;;
4698;SDS011;33708;49.466;11.176;2024-03-06T13:27:31;28.63;;;15.93;;
4698;SDS011;33708;49.466;11.176;2024-03-06T13:29:57;24.57;;;15.50;;
4698;SDS011;33708;49.466;11.176;2024-03-06T13:32:23;25.23;;;14.97;;
4698;SDS011;33708;49.466;11.176;2024-03-06T13:34:49;25.30;;;15.17;;
4698;SDS011;33708;49.466;11.176;2024-03-06T13:37:15;27.60;;;16.30;;
4698;SDS011;33708;49.466;11.176;2024-03-06T13:39:41;25.00;;;14.77;;
4698;SDS011;33708;49.466;11.176;2024-03-06T13:42:06;26.27;;;16.70;;
4698;SDS011;33708;49.466;11.176;2024-03-06T13:44:35;27.03;;;17.43;;
4698;SDS011;33708;49.466;11.176;2024-03-06T13:47:01;27.10;;;15.90;;
4698;SDS011;33708;49.466;11.176;2024-03-06T13:49:34;30.70;;;17.27;;
4698;SDS011;33708;49.466;11.176;2024-03-06T13:52:02;26.67;;;16.67;;
4698;SDS011;33708;49.466;11.176;2024-03-06T13:54:27;25.30;;;15.90;;
4698;SDS011;33708;49.466;11.176;2024-03-06T13:56:53;28.97;;;16.77;;
4698;SDS011;33708;49.466;11.176;2024-03-06T13:59:26;24.40;;;15.40;;
4698;SDS011;33708;49.466;11.176;2024-03-06T14:01:52;26.23;;;16.50;;
4698;SDS011;33708;49.466;11.176;2024-03-06T14:04:18;24.90;;;15.73;;
4698;SDS011;33708;49.466;11.176;2024-03-06T14:06:44;31.37;;;15.80;;
4698;SDS011;33708;49.466;11.176;2024-03-06T14:09:09;23.63;;;15.20;;
4698;SDS011;33708;49.466;11.176;2024-03-06T14:11:35;24.37;;;15.80;;
4698;SDS011;33708;49.466;11.176;2024-03-06T14:14:00;28.40;;;17.70;;
4698;SDS011;33708;49.466;11.176;2024-03-06T14:16:26;25.23;;;17.80;;
4698;SDS011;33708;49.466;11.176;2024-03-06T14:18:52;30.23;;;18.13;;
4698;SDS011;33708;49.466;11.176;2024-03-06T14:21:18;26.30;;;16.90;;
4698;SDS011;33708;49.466;11.176;2024-03-06T14:23:44;26.33;;;17.20;;
4698;SDS011;33708;49.466;11.176;2024-03-06T14:26:09;30.57;;;15.70;;
4698;SDS011;33708;49.466;11.176;2024-03-06T14:28:35;25.17;;;15.23;;
4698;SDS011;33708;49.466;11.176;2024-03-06T14:31:03;27.83;;;15.30;;
4698;SDS011;33708;49.466;11.176;2024-03-06T14:33:29;28.17;;;17.80;;
4698;SDS011;33708;49.466;11.176;2024-03-06T14:35:54;25.47;;;16.23;;
4698;SDS011;33708;49.466;11.176;2024-03-06T14:38:20;27.00;;;17.87;;
4698;SDS011;33708;49.466;11.176;2024-03-06T14:40:46;26.53;;;16.50;;